• Join FlightAware (Why Join?)
  • Login
  • US Flag 
12:52AM EDT


 

Airport Tracker/Info


-or-


 

Live Flight TrackerFlight Track Log ✈ N4978T ✈ 02-Jul-2013 ✈ KCNO - KSMO

Flight Track Log - Related Links

Times and Time Zones

All times are in EDT time to prevent confusion due to time zone crossing. See the N4978T flight status page for this flight to view local times or setup timezone preferences in your user account.

Time Position Orientation Groundspeed Altitude Reporting Facility
EDT Latitude Longitude Course Direction KTS MPH feet Rate Location/Type
07:59PM 33.9833 -117.6833 270° West 89 102 2,000  Level Southern California TRACON
08:00PM 33.9833 -117.7167 270° West 95 109 2,500 540 Climbing Southern California TRACON
08:01PM 34.0000 -117.7333 320° Northwest 88 101 3,100 540 Climbing Southern California TRACON
08:02PM 34.0000 -117.7667 270° West 81 93 3,600 420 Climbing Southern California TRACON
08:03PM 34.0167 -117.7833 320° Northwest 87 100 4,000 420 Climbing Southern California TRACON
08:04PM 34.0167 -117.8167 270° West 120 138 4,500 420 Climbing Southern California TRACON
08:05PM 34.0333 -117.8500 301° West 77 89 4,900 360 Climbing Southern California TRACON
08:06PM 34.0333 -117.8667 270° West 79 91 5,300 420 Climbing Southern California TRACON
08:07PM 34.0333 -117.8833 270° West 81 93 5,800 420 Climbing Southern California TRACON
08:08PM 34.0500 -117.9167 301° West 85 98 6,200 120 Climbing Southern California TRACON
08:09PM 34.0667 -117.9500 301° West 117 135 6,100 -60 Descending Southern California TRACON
08:10PM 34.0667 -117.9833 270° West 126 145 6,100  Level Southern California TRACON
08:11PM 34.0833 -118.0333 292° West 127 146 6,100  Level Southern California TRACON
08:12PM 34.1000 -118.0667 301° West 130 150 6,100  Level Southern California TRACON
08:13PM 34.1167 -118.1167 292° West 132 152 6,100  Level Southern California TRACON
08:14PM 34.1167 -118.1500 270° West 130 150 6,100  Level Southern California TRACON
08:15PM 34.1333 -118.2000 292° West 130 150 6,100 -360 Level Southern California TRACON
08:16PM 34.1500 -118.2333 301° West 148 170 5,400 -720 Descending Southern California TRACON
08:17PM 34.1500 -118.2833 270° West 138 159 4,700 -900 Descending Southern California TRACON
08:18PM 34.1167 -118.3167 220° Southwest 152 175 3,600 -1,020 Descending Southern California TRACON
08:19PM 34.1000 -118.3500 239° Southwest 121 139 2,700 -720 Descending Southern California TRACON
08:20PM 34.0833 -118.3833 239° Southwest 90 104 2,200 -600 Descending Southern California TRACON
08:21PM 34.0667 -118.4000 220° Southwest 79 91 1,500 -600 Descending Southern California TRACON
08:22PM 34.0500 -118.4167 220° Southwest 65 75 1,100 -300 Descending Southern California TRACON
08:23PM 34.0333 -118.4333 220° Southwest 70 81 1,000 -300 Descending Southern California TRACON
08:24PM 34.0167 -118.4500 220° Southwest 64 74 500 -540 Descending Southern California TRACON
08:27PM 34.0158 -118.4513 229° Southwest  Level Estimated
08:34PM 34.0158 -118.4513 229° Southwest  Level Estimated